createdAt,value
2018-12-19T00:00:19.862Z,4.50
2018-12-19T00:02:50.505Z,4.40
2018-12-19T00:05:21.135Z,5.05
2018-12-19T00:07:51.815Z,4.50
2018-12-19T00:10:20.525Z,5.10
2018-12-19T00:12:49.228Z,4.70
2018-12-19T00:15:17.998Z,4.75
2018-12-19T00:17:48.670Z,5.33
2018-12-19T00:20:17.435Z,4.47
2018-12-19T00:22:46.135Z,4.60
2018-12-19T00:25:14.855Z,4.50
2018-12-19T00:27:45.482Z,4.80
2018-12-19T00:30:16.158Z,4.60
2018-12-19T00:32:46.790Z,4.50
2018-12-19T00:35:17.414Z,4.70
2018-12-19T00:37:46.114Z,5.00
2018-12-19T00:40:14.842Z,5.00
2018-12-19T00:42:43.550Z,4.60
2018-12-19T00:45:12.279Z,4.50
2018-12-19T00:47:41.919Z,4.30
2018-12-19T00:50:10.694Z,4.40
2018-12-19T00:52:39.395Z,4.30
2018-12-19T00:55:08.162Z,4.20
2018-12-19T00:57:36.916Z,3.90
2018-12-19T01:00:06.651Z,4.40
2018-12-19T01:02:35.335Z,4.65
2018-12-19T01:05:04.425Z,4.67
2018-12-19T01:07:33.142Z,4.37
2018-12-19T01:10:01.904Z,4.70
2018-12-19T01:12:31.630Z,4.60
2018-12-19T01:15:00.310Z,4.67
2018-12-19T01:17:28.975Z,5.15
2018-12-19T01:19:57.756Z,5.45
2018-12-19T01:22:26.462Z,4.95
2018-12-19T01:24:55.192Z,4.22
2018-12-19T01:27:23.902Z,4.65
2018-12-19T01:29:52.636Z,5.10
2018-12-19T01:32:21.294Z,5.10
2018-12-19T01:34:50.018Z,4.80
2018-12-19T01:37:18.810Z,4.60
2018-12-19T01:39:47.518Z,5.60
2018-12-19T01:42:16.242Z,4.47
2018-12-19T01:44:44.959Z,4.60
2018-12-19T01:47:13.724Z,4.58
2018-12-19T01:49:42.435Z,4.95
2018-12-19T01:52:11.139Z,5.20
2018-12-19T01:54:39.855Z,5.20
2018-12-19T01:57:08.626Z,5.10
2018-12-19T01:59:37.300Z,4.72
2018-12-19T02:02:06.186Z,5.60
2018-12-19T02:04:34.894Z,4.83
2018-12-19T02:07:03.676Z,4.80
2018-12-19T02:09:32.366Z,4.85
2018-12-19T02:12:01.101Z,5.00
2018-12-19T02:14:29.806Z,5.53
2018-12-19T02:16:58.517Z,5.90
2018-12-19T02:19:27.223Z,5.25
2018-12-19T02:21:55.863Z,5.60
2018-12-19T02:24:24.651Z,5.65
2018-12-19T02:26:53.430Z,5.80
2018-12-19T02:29:23.063Z,5.65
2018-12-19T02:31:51.910Z,5.42
2018-12-19T02:34:20.662Z,5.40
2018-12-19T02:36:49.395Z,5.25
2018-12-19T02:39:18.006Z,5.53
2018-12-19T02:41:46.663Z,5.55
2018-12-19T02:44:15.350Z,6.05
2018-12-19T02:46:44.126Z,5.53
2018-12-19T02:49:12.840Z,6.40
2018-12-19T02:51:41.593Z,6.60
2018-12-19T02:54:10.375Z,6.28
2018-12-19T02:56:39.076Z,6.20
2018-12-19T02:59:07.828Z,6.60
2018-12-19T03:01:36.590Z,6.50
2018-12-19T03:04:05.379Z,6.60
2018-12-19T03:06:34.090Z,6.40
2018-12-19T03:09:03.799Z,6.67
2018-12-19T03:11:33.985Z,6.90
2018-12-19T03:14:02.813Z,6.85
2018-12-19T03:16:32.227Z,6.92
2018-12-19T03:19:01.978Z,7.45
2018-12-19T03:21:30.659Z,6.63
2018-12-19T03:23:59.387Z,6.90
2018-12-19T03:26:28.055Z,6.97
2018-12-19T03:28:56.862Z,6.92
2018-12-19T03:31:25.572Z,7.10
2018-12-19T03:33:54.279Z,7.40
2018-12-19T03:36:23.005Z,7.72
2018-12-19T03:38:51.781Z,7.50
2018-12-19T03:41:20.499Z,7.65
2018-12-19T03:43:49.212Z,7.20
2018-12-19T03:46:17.952Z,7.05
2018-12-19T03:48:52.085Z,7.97
2018-12-19T03:51:20.874Z,8.08
2018-12-19T03:53:49.639Z,7.60
2018-12-19T03:56:18.371Z,7.90
2018-12-19T03:58:47.118Z,7.80
2018-12-19T04:01:15.853Z,7.72
2018-12-19T04:03:44.590Z,8.00
2018-12-19T04:06:13.427Z,7.87
2018-12-19T04:08:42.126Z,7.83
2018-12-19T04:11:10.887Z,7.60
2018-12-19T04:13:39.589Z,8.70
2018-12-19T04:16:08.339Z,8.05
2018-12-19T04:18:37.146Z,8.30
2018-12-19T04:21:05.975Z,8.40
2018-12-19T04:23:34.671Z,8.75
2018-12-19T04:26:03.417Z,9.30
2018-12-19T04:28:32.139Z,8.58
2018-12-19T04:31:00.925Z,9.03
2018-12-19T04:33:29.721Z,9.33
2018-12-19T04:35:58.579Z,9.03
2018-12-19T04:38:27.479Z,8.90
2018-12-19T04:40:56.213Z,9.20
2018-12-19T04:43:24.958Z,8.93
2018-12-19T04:45:53.726Z,9.40
2018-12-19T04:48:22.459Z,10.43
2018-12-19T04:50:51.178Z,9.90
2018-12-19T04:53:19.931Z,9.87
2018-12-19T04:55:48.690Z,9.50
2018-12-19T04:58:17.443Z,10.40
2018-12-19T05:00:46.174Z,9.38
2018-12-19T05:03:14.963Z,10.27
2018-12-19T05:05:43.674Z,10.54
2018-12-19T05:08:12.461Z,10.25
2018-12-19T05:10:41.210Z,10.20
2018-12-19T05:13:09.931Z,10.00
2018-12-19T05:15:38.696Z,10.03
2018-12-19T05:18:07.423Z,11.40
2018-12-19T05:20:36.235Z,10.43
2018-12-19T05:23:05.062Z,11.40
2018-12-19T05:25:33.815Z,10.98
2018-12-19T05:28:02.552Z,10.72
2018-12-19T05:30:31.329Z,10.93
2018-12-19T05:33:00.061Z,10.82
2018-12-19T05:35:28.755Z,10.60
2018-12-19T05:37:57.529Z,10.50
2018-12-19T05:40:27.308Z,10.80
2018-12-19T05:42:55.982Z,11.13
2018-12-19T05:45:24.723Z,11.87
2018-12-19T05:47:53.467Z,11.23
2018-12-19T05:50:25.196Z,11.08
2018-12-19T05:52:53.966Z,10.53
2018-12-19T05:55:22.702Z,11.70
2018-12-19T05:57:51.394Z,10.93
2018-12-19T06:00:20.374Z,11.60
2018-12-19T06:02:49.046Z,11.40
2018-12-19T06:05:17.806Z,11.83
2018-12-19T06:07:46.483Z,11.03
2018-12-19T06:10:15.242Z,10.68
2018-12-19T06:12:44.039Z,10.65
2018-12-19T06:15:12.798Z,10.87
2018-12-19T06:17:42.067Z,10.28
2018-12-19T06:20:10.797Z,14.60
2018-12-19T06:22:39.487Z,10.65
2018-12-19T06:25:08.230Z,11.00
2018-12-19T06:27:36.990Z,10.57
2018-12-19T06:30:05.883Z,11.73
2018-12-19T06:32:34.599Z,11.45
2018-12-19T06:35:03.415Z,12.23
2018-12-19T06:37:32.144Z,11.53
2018-12-19T06:40:01.406Z,11.80
2018-12-19T06:42:30.159Z,13.40
2018-12-19T06:44:58.850Z,12.40
2018-12-19T06:47:27.643Z,13.30
2018-12-19T06:49:57.171Z,12.50
2018-12-19T06:52:25.911Z,14.17
2018-12-19T06:54:54.725Z,13.83
2018-12-19T06:57:23.520Z,13.60
2018-12-19T06:59:52.330Z,13.73
2018-12-19T07:02:21.013Z,14.25
2018-12-19T07:04:49.675Z,14.57
2018-12-19T07:07:18.463Z,15.10
2018-12-19T07:09:47.232Z,15.30
2018-12-19T07:12:15.968Z,15.80
2018-12-19T07:14:46.302Z,15.80
2018-12-19T07:17:15.202Z,17.00
2018-12-19T07:19:43.930Z,15.20
2018-12-19T07:22:12.715Z,16.37
2018-12-19T07:24:41.454Z,15.87
2018-12-19T07:27:10.293Z,16.40
2018-12-19T07:29:39.082Z,16.15
2018-12-19T07:32:07.843Z,16.30
2018-12-19T07:34:36.563Z,16.50
2018-12-19T07:37:05.243Z,17.10
2018-12-19T07:39:34.007Z,17.45
2018-12-19T07:42:02.800Z,17.75
2018-12-19T07:44:31.539Z,17.07
2018-12-19T07:47:00.396Z,17.27
2018-12-19T07:49:29.043Z,17.00
2018-12-19T07:51:57.858Z,15.75
2018-12-19T07:54:26.535Z,17.30
2018-12-19T07:56:55.327Z,16.30
2018-12-19T07:59:24.084Z,16.40
2018-12-19T08:01:53.119Z,17.70
2018-12-19T08:04:22.457Z,17.12
2018-12-19T08:06:52.429Z,17.67
2018-12-19T08:09:21.213Z,16.60
2018-12-19T08:11:49.943Z,17.40
2018-12-19T08:14:18.691Z,17.10
2018-12-19T08:16:47.387Z,17.70
2018-12-19T08:19:16.126Z,18.17
2018-12-19T08:21:44.842Z,18.42
2018-12-19T08:24:13.556Z,17.35
2018-12-19T08:26:42.336Z,17.75
2018-12-19T08:29:11.063Z,17.53
2018-12-19T08:31:39.787Z,18.70
2018-12-19T08:34:08.646Z,17.25
2018-12-19T08:36:37.598Z,18.15
2018-12-19T08:39:06.562Z,18.53
2018-12-19T08:41:36.564Z,18.30
2018-12-19T08:44:05.296Z,17.40
2018-12-19T08:46:34.026Z,16.50
2018-12-19T08:49:02.776Z,17.17
2018-12-19T08:51:31.557Z,16.60
2018-12-19T08:54:00.210Z,18.20
2018-12-19T08:56:28.979Z,16.80
2018-12-19T08:58:57.682Z,17.10
2018-12-19T09:01:26.396Z,16.52
2018-12-19T09:03:55.111Z,16.70
2018-12-19T09:06:23.886Z,15.30
2018-12-19T09:08:52.590Z,15.97
2018-12-19T09:11:21.412Z,16.30
2018-12-19T09:13:50.074Z,15.88
2018-12-19T09:16:18.758Z,15.95
2018-12-19T09:18:47.454Z,15.33
2018-12-19T09:21:16.121Z,16.20
2018-12-19T09:23:44.868Z,15.45
2018-12-19T09:26:13.688Z,15.60
2018-12-19T09:28:42.435Z,15.35
2018-12-19T09:31:11.195Z,14.68
2018-12-19T09:33:39.907Z,14.25
2018-12-19T09:36:08.751Z,15.72
2018-12-19T09:38:37.462Z,14.20
2018-12-19T09:41:12.280Z,15.48
2018-12-19T09:43:37.898Z,15.48
2018-12-19T09:46:06.654Z,15.60
2018-12-19T09:48:35.394Z,16.20
2018-12-19T09:51:04.153Z,15.38
2018-12-19T09:53:32.935Z,16.25
2018-12-19T09:56:02.611Z,16.23
2018-12-19T09:58:31.393Z,15.43
2018-12-19T10:01:01.971Z,15.48
2018-12-19T10:03:30.805Z,15.43
2018-12-19T10:05:59.641Z,16.40
2018-12-19T10:08:28.299Z,15.20
2018-12-19T10:10:56.971Z,15.90
2018-12-19T10:13:25.735Z,16.07
2018-12-19T10:15:54.482Z,15.63
2018-12-19T10:20:58.258Z,16.10
2018-12-19T10:23:27.007Z,16.37
2018-12-19T10:26:01.148Z,16.60
2018-12-19T10:28:34.370Z,16.42
2018-12-19T10:31:03.134Z,16.60
2018-12-19T10:33:31.790Z,16.83
2018-12-19T10:36:00.626Z,16.42
2018-12-19T10:38:30.246Z,17.75
2018-12-19T10:40:58.995Z,16.97
2018-12-19T10:43:27.787Z,17.03
2018-12-19T10:45:56.541Z,17.90
2018-12-19T10:48:25.360Z,18.00
2018-12-19T10:50:54.159Z,16.50
2018-12-19T10:53:22.813Z,17.70
2018-12-19T10:55:51.647Z,17.67
2018-12-19T10:58:20.422Z,17.23
2018-12-19T11:00:54.858Z,16.35
2018-12-19T11:03:23.602Z,18.25
2018-12-19T11:05:54.508Z,17.50
2018-12-19T11:08:23.066Z,16.23
2018-12-19T11:10:51.899Z,17.50
2018-12-19T11:13:20.642Z,16.60
2018-12-19T11:15:49.410Z,16.67
2018-12-19T11:18:18.151Z,16.70
2018-12-19T11:20:47.075Z,17.30
2018-12-19T11:23:15.788Z,16.32
2018-12-19T11:25:44.559Z,17.20
2018-12-19T11:28:13.470Z,16.57
2018-12-19T11:30:42.214Z,17.13
2018-12-19T11:33:10.938Z,16.30
2018-12-19T11:35:39.668Z,16.50
2018-12-19T11:38:08.435Z,17.62
2018-12-19T11:40:37.174Z,16.87
2018-12-19T11:43:05.945Z,17.63
2018-12-19T11:45:34.703Z,17.17
2018-12-19T11:48:03.454Z,17.20
2018-12-19T11:50:32.690Z,16.67
2018-12-19T11:53:01.443Z,17.73
2018-12-19T11:55:30.158Z,17.47
2018-12-19T11:57:58.915Z,16.97
2018-12-19T12:00:27.630Z,16.83
2018-12-19T12:02:56.998Z,16.77
2018-12-19T12:05:25.802Z,16.93
2018-12-19T12:07:54.559Z,17.10
2018-12-19T12:10:23.306Z,14.73
2018-12-19T12:12:52.051Z,14.47
2018-12-19T12:15:20.813Z,15.20
2018-12-19T12:17:49.519Z,15.98
2018-12-19T12:20:18.290Z,17.30
2018-12-19T12:22:47.135Z,17.45
2018-12-19T12:25:15.883Z,16.60
2018-12-19T12:27:44.623Z,16.47
2018-12-19T12:30:13.307Z,17.13
2018-12-19T12:32:42.131Z,16.30
2018-12-19T12:35:11.560Z,15.48
2018-12-19T12:37:40.347Z,15.60
2018-12-19T12:40:09.350Z,15.27
2018-12-19T12:42:38.134Z,15.40
2018-12-19T12:45:07.083Z,16.20
2018-12-19T12:47:35.969Z,15.88
2018-12-19T12:50:05.481Z,16.37
2018-12-19T12:52:34.223Z,17.90
2018-12-19T12:55:02.943Z,15.60
2018-12-19T12:57:31.687Z,15.85
2018-12-19T13:00:00.455Z,16.37
2018-12-19T13:02:29.210Z,15.85
2018-12-19T13:04:57.964Z,15.60
2018-12-19T13:07:27.660Z,16.82
2018-12-19T13:09:56.426Z,16.20
2018-12-19T13:12:25.118Z,16.32
2018-12-19T13:14:53.866Z,16.07
2018-12-19T13:17:22.611Z,16.32
2018-12-19T13:19:51.378Z,16.20
2018-12-19T13:22:20.124Z,16.30
2018-12-19T13:24:48.891Z,15.33
2018-12-19T13:27:17.618Z,15.50
2018-12-19T13:29:46.399Z,14.73
2018-12-19T13:32:15.186Z,14.98
2018-12-19T13:34:44.522Z,15.18
2018-12-19T13:37:13.217Z,14.20
2018-12-19T13:39:41.933Z,15.00
2018-12-19T13:42:10.678Z,15.23
2018-12-19T13:44:39.443Z,14.60
2018-12-19T13:47:08.151Z,14.20
2018-12-19T13:49:36.903Z,14.50
2018-12-19T13:52:06.711Z,14.30
2018-12-19T13:54:35.451Z,14.00
2018-12-19T13:57:04.275Z,13.32
2018-12-19T13:59:33.055Z,13.40
2018-12-19T14:02:01.830Z,13.47
2018-12-19T14:04:30.621Z,12.60
2018-12-19T14:07:00.055Z,13.75
2018-12-19T14:09:28.842Z,12.20
2018-12-19T14:11:57.555Z,13.97
2018-12-19T14:14:26.329Z,12.63
2018-12-19T14:16:55.189Z,13.18
2018-12-19T14:19:23.932Z,13.48
2018-12-19T14:21:52.683Z,13.03
2018-12-19T14:24:21.430Z,13.80
2018-12-19T14:26:50.190Z,13.72
2018-12-19T14:29:18.944Z,14.30
2018-12-19T14:31:47.695Z,14.38
2018-12-19T14:34:16.472Z,13.50
2018-12-19T14:36:45.254Z,14.98
2018-12-19T14:39:14.030Z,13.00
2018-12-19T14:41:42.805Z,14.38
2018-12-19T14:44:11.587Z,15.37
2018-12-19T14:46:40.315Z,14.20
2018-12-19T14:49:13.943Z,14.80
2018-12-19T14:51:40.764Z,14.15
2018-12-19T14:54:09.815Z,16.32
2018-12-19T14:56:38.595Z,16.20
2018-12-19T14:59:07.331Z,14.63
2018-12-19T15:01:36.085Z,15.70
2018-12-19T15:04:04.899Z,14.85
2018-12-19T15:06:33.594Z,14.30
2018-12-19T15:09:02.338Z,14.30
2018-12-19T15:11:31.031Z,15.18
2018-12-19T15:13:59.731Z,12.95
2018-12-19T15:16:28.502Z,15.75
2018-12-19T15:18:57.250Z,14.33
2018-12-19T15:21:25.939Z,14.40
2018-12-19T15:23:54.666Z,15.23
2018-12-19T15:26:23.479Z,16.50
2018-12-19T15:28:52.170Z,14.87
2018-12-19T15:31:20.894Z,14.10
2018-12-19T15:33:49.616Z,14.23
2018-12-19T15:36:18.789Z,12.30
2018-12-19T15:38:47.516Z,12.78
2018-12-19T15:41:16.238Z,15.38
2018-12-19T15:43:44.916Z,17.75
2018-12-19T15:46:13.678Z,15.03
2018-12-19T15:48:42.358Z,12.33
2018-12-19T15:51:11.087Z,13.03
2018-12-19T15:53:39.802Z,13.28
2018-12-19T15:56:09.554Z,14.10
2018-12-19T15:58:38.334Z,14.50
2018-12-19T16:01:07.060Z,12.93
2018-12-19T16:03:35.767Z,11.70
2018-12-19T16:06:04.571Z,12.00
2018-12-19T16:08:33.387Z,11.30
2018-12-19T16:11:02.091Z,12.40
2018-12-19T16:13:30.827Z,13.30
2018-12-19T16:15:59.642Z,13.45
2018-12-19T16:18:28.435Z,13.10
2018-12-19T16:20:57.167Z,12.93
2018-12-19T16:23:25.819Z,13.70
2018-12-19T16:25:54.590Z,14.00
2018-12-19T16:28:23.342Z,12.88
2018-12-19T16:30:52.131Z,11.50
2018-12-19T16:33:20.834Z,11.53
2018-12-19T16:35:49.648Z,12.03
2018-12-19T16:38:18.495Z,12.50
2018-12-19T16:40:47.146Z,12.80
2018-12-19T16:43:16.584Z,12.35
2018-12-19T16:45:45.415Z,13.00
2018-12-19T16:48:14.109Z,13.50
2018-12-19T16:50:42.795Z,15.57
2018-12-19T16:53:11.587Z,16.30
2018-12-19T16:55:41.399Z,13.45
2018-12-19T16:58:10.118Z,13.10
2018-12-19T17:00:38.880Z,11.90
2018-12-19T17:03:07.713Z,13.00
2018-12-19T17:05:36.452Z,15.48
2018-12-19T17:08:05.200Z,14.68
2018-12-19T17:10:33.974Z,14.07
2018-12-19T17:13:02.690Z,13.93
2018-12-19T17:15:31.417Z,13.03
2018-12-19T17:18:00.090Z,13.53
2018-12-19T17:20:28.805Z,13.30
2018-12-19T17:22:57.542Z,13.20
2018-12-19T17:25:26.262Z,13.10
2018-12-19T17:27:54.947Z,13.05
2018-12-19T17:30:23.654Z,12.68
2018-12-19T17:32:52.397Z,13.05
2018-12-19T17:35:21.198Z,18.27
2018-12-19T17:37:50.145Z,15.65
2018-12-19T17:40:18.927Z,14.43
2018-12-19T17:42:47.708Z,14.70
2018-12-19T17:45:16.450Z,13.78
2018-12-19T17:47:45.183Z,15.40
2018-12-19T17:50:13.982Z,14.30
2018-12-19T17:52:42.799Z,16.10
2018-12-19T17:55:11.546Z,14.05
2018-12-19T17:57:40.246Z,14.20
2018-12-19T18:00:11.018Z,13.50
2018-12-19T18:02:39.822Z,13.33
2018-12-19T18:05:08.562Z,13.28
2018-12-19T18:07:37.309Z,13.58
2018-12-19T18:10:06.162Z,13.83
2018-12-19T18:12:34.880Z,15.98
2018-12-19T18:15:03.783Z,16.20
2018-12-19T18:17:32.482Z,15.63
2018-12-19T18:20:01.223Z,15.77
2018-12-19T18:22:30.059Z,15.10
2018-12-19T18:24:58.811Z,14.30
2018-12-19T18:27:27.554Z,15.13
2018-12-19T18:29:56.266Z,15.28
2018-12-19T18:32:24.995Z,14.80
2018-12-19T18:34:54.282Z,13.50
2018-12-19T18:37:23.098Z,13.40
2018-12-19T18:39:51.855Z,12.93
2018-12-19T18:42:20.615Z,12.90
2018-12-19T18:44:49.322Z,13.03
2018-12-19T18:47:18.176Z,12.03
2018-12-19T18:49:46.906Z,11.80
2018-12-19T18:52:15.586Z,9.73
2018-12-19T18:54:44.306Z,10.15
2018-12-19T18:57:13.728Z,10.00
2018-12-19T18:59:42.394Z,9.50
2018-12-19T19:02:11.141Z,8.37
2018-12-19T19:04:39.868Z,9.10
2018-12-19T19:07:08.675Z,9.40
2018-12-19T19:09:38.450Z,9.70
2018-12-19T19:12:07.190Z,10.60
2018-12-19T19:14:35.919Z,12.37
2018-12-19T19:17:04.709Z,12.70
2018-12-19T19:19:33.398Z,13.00
2018-12-19T19:22:02.293Z,11.40
2018-12-19T19:24:31.084Z,12.37
2018-12-19T19:26:59.848Z,11.50
2018-12-19T19:29:28.531Z,12.00
2018-12-19T19:31:57.251Z,12.20
2018-12-19T19:34:26.040Z,12.55
2018-12-19T19:36:54.834Z,13.00
2018-12-19T19:39:23.595Z,12.83
2018-12-19T19:41:52.735Z,11.95
2018-12-19T19:44:21.495Z,11.60
2018-12-19T19:46:50.259Z,10.50
2018-12-19T19:49:19.002Z,10.83
2018-12-19T19:51:47.742Z,11.20
2018-12-19T19:54:16.579Z,11.10
2018-12-19T19:56:45.327Z,10.40
2018-12-19T19:59:14.111Z,10.50
2018-12-19T20:01:42.851Z,11.47
2018-12-19T20:04:12.306Z,10.85
2018-12-19T20:06:41.018Z,10.93
2018-12-19T20:09:09.725Z,11.78
2018-12-19T20:11:39.455Z,12.40
2018-12-19T20:14:08.282Z,12.80
2018-12-19T20:16:41.282Z,12.20
2018-12-19T20:19:10.058Z,12.13
2018-12-19T20:21:38.853Z,11.50
2018-12-19T20:24:07.557Z,11.65
2018-12-19T20:26:36.315Z,10.75
2018-12-19T20:29:05.279Z,11.80
2018-12-19T20:31:35.028Z,11.60
2018-12-19T20:34:03.891Z,11.75
2018-12-19T20:36:32.638Z,12.37
2018-12-19T20:39:01.414Z,12.53
2018-12-19T20:41:31.414Z,13.05
2018-12-19T20:44:00.094Z,13.68
2018-12-19T20:46:28.773Z,13.60
2018-12-19T20:48:57.531Z,13.80
2018-12-19T20:51:26.278Z,13.38
2018-12-19T20:53:55.038Z,12.65
2018-12-19T20:56:23.831Z,12.80
2018-12-19T20:58:52.662Z,13.60
2018-12-19T21:01:22.490Z,12.90
2018-12-19T21:03:51.259Z,12.70
2018-12-19T21:06:19.994Z,13.40
2018-12-19T21:08:48.823Z,16.80
2018-12-19T21:11:17.521Z,14.70
2018-12-19T21:13:46.915Z,13.70
2018-12-19T21:16:15.776Z,14.37
2018-12-19T21:18:51.401Z,14.33
2018-12-19T21:21:20.214Z,15.40
2018-12-19T21:23:48.862Z,15.90
2018-12-19T21:26:17.626Z,15.20
2018-12-19T21:28:46.356Z,15.37
2018-12-19T21:31:15.170Z,16.48
2018-12-19T21:33:43.891Z,15.47
2018-12-19T21:36:12.697Z,15.30
2018-12-19T21:38:41.395Z,16.20
2018-12-19T21:41:10.138Z,16.95
2018-12-19T21:43:39.620Z,15.25
2018-12-19T21:46:08.442Z,15.80
2018-12-19T21:48:37.822Z,17.13
2018-12-19T21:51:06.553Z,15.68
2018-12-19T21:53:35.334Z,15.08
2018-12-19T21:56:04.092Z,15.30
2018-12-19T21:58:32.874Z,16.10
2018-12-19T22:01:01.569Z,15.07
2018-12-19T22:03:30.315Z,15.30
2018-12-19T22:05:59.069Z,15.57
2018-12-19T22:08:27.902Z,15.37
2018-12-19T22:10:56.684Z,15.58
2018-12-19T22:13:25.489Z,15.10
2018-12-19T22:15:54.271Z,15.75
2018-12-19T22:18:28.390Z,15.60
2018-12-19T22:20:57.180Z,16.00
2018-12-19T22:23:25.853Z,15.50
2018-12-19T22:25:54.566Z,15.72
2018-12-19T22:28:23.268Z,15.80
2018-12-19T22:30:52.075Z,17.17
2018-12-19T22:33:20.962Z,17.40
2018-12-19T22:35:49.702Z,16.00
2018-12-19T22:38:18.557Z,16.30
2018-12-19T22:40:47.293Z,18.20
2018-12-19T22:43:15.966Z,17.67
2018-12-19T22:45:44.723Z,17.20
2018-12-19T22:48:13.531Z,16.20
2018-12-19T22:50:42.214Z,16.97
2018-12-19T22:53:10.978Z,16.15
2018-12-19T22:55:39.714Z,15.50
2018-12-19T22:58:08.583Z,16.90
2018-12-19T23:00:42.798Z,16.30
2018-12-19T23:03:11.526Z,18.30
2018-12-19T23:05:46.734Z,18.00
2018-12-19T23:08:15.447Z,17.67
2018-12-19T23:10:44.215Z,17.40
2018-12-19T23:13:14.328Z,17.37
2018-12-19T23:15:44.882Z,18.33
2018-12-19T23:18:24.549Z,17.23
2018-12-19T23:20:59.121Z,16.52
2018-12-19T23:23:33.449Z,17.80
2018-12-19T23:26:07.710Z,16.80
2018-12-19T23:28:38.456Z,17.50
2018-12-19T23:31:07.195Z,16.50
2018-12-19T23:33:36.348Z,17.27
2018-12-19T23:36:05.115Z,18.05
2018-12-19T23:38:33.932Z,18.02
2018-12-19T23:41:02.818Z,18.30
2018-12-19T23:43:31.634Z,18.42
2018-12-19T23:46:00.409Z,18.57
2018-12-19T23:48:29.278Z,17.70
2018-12-19T23:50:58.025Z,16.80
2018-12-19T23:53:26.897Z,17.67
2018-12-19T23:55:55.648Z,18.10
2018-12-19T23:58:24.647Z,19.02
